Terminal Aerodrome Forecast
Issued by NWS

Home | Current Version | Previous Version | Text Only | Print | Product List | Glossary On
Versions: 1 2 3 4 5 6 7 8 9 10 11 12 13 14 15 16 17 18 19 20 21
000
FTUS44 KLZK 190521
TAFADF
TAF
KADF 190521Z 1906/2006 VRB03KT P6SM VCTS SCT060CB BKN250
      TEMPO 1906/1910 VRB10G25KT 5SM BR
     FM191100 VRB03KT 3SM BR FEW250
     FM191500 23003KT P6SM SCT050 SCT250=

USA.gov is the U.S. government's official web portal to all federal, state and local government web resources and services.